• Join FlightAware (Why Join?)
  • Login
  • US Flag 
12:49AM EST


 

Airport Tracker/Info


-or-


 

Live Flight TrackerFlight Track Log ✈ UPS1083 ✈ 27-Sep-2013 ✈ KEWR - KSDF

Flight Track Log - Related Links

Times and Time Zones

All times are in EDT time to prevent confusion due to time zone crossing. See the UPS1083 flight status page for this flight to view local times or setup timezone preferences in your user account.

Time Position Orientation Groundspeed Altitude Reporting Facility
EDT Latitude Longitude Course Direction KTS MPH feet Rate Location/Type
10:39PM 40.6817 -74.1754 14° North 110 127  Level FlightAware ADS-B
10:40PM 40.7082 -74.1562 29° Northeast 162 186 1,200 1,696 Climbing FlightAware ADS-B
10:40PM 40.7100 -74.1539 44° Northeast 165 190 1,300 1,655 Climbing FlightAware ADS-B
10:40PM 40.7247 -74.1335 46° Northeast 175 201 2,000 1,674 Climbing FlightAware ADS-B
10:40PM 40.7382 -74.1181 41° Northeast 226 260 2,500 2,000 Climbing FlightAware ADS-B
10:40PM 40.7414 -74.1163 23° Northeast 230 265 2,700 3,429 Climbing FlightAware ADS-B
10:41PM 40.7455 -74.1148 15° North 231 266 2,900 3,000 Climbing FlightAware ADS-B
10:41PM 40.7498 -74.1143 North 235 270 3,100 2,400 Climbing FlightAware ADS-B
10:41PM 40.7563 -74.1149 356° North 241 277 3,300 1,636 Climbing FlightAware ADS-B
10:41PM 40.7617 -74.1169 344° North 248 285 3,400 1,500 Climbing FlightAware ADS-B
10:41PM 40.7651 -74.1188 337° Northwest 254 292 3,500 2,000 Climbing FlightAware ADS-B
10:41PM 40.7687 -74.1216 329° Northwest 259 298 3,600 2,250 Climbing FlightAware ADS-B
10:41PM 40.7729 -74.1260 322° Northwest 263 303 3,800 3,000 Climbing FlightAware ADS-B
10:41PM 40.7760 -74.1303 314° West 265 305 4,000 3,000 Climbing FlightAware ADS-B
10:41PM 40.7790 -74.1357 306° West 267 307 4,200 3,333 Climbing FlightAware ADS-B
10:41PM 40.7815 -74.1421 297° West 267 307 4,500 3,750 Climbing FlightAware ADS-B
10:41PM 40.7830 -74.1473 291° West 268 308 4,700 3,333 Climbing FlightAware ADS-B
10:41PM 40.7845 -74.1560 283° West 270 311 5,000 3,750 Climbing FlightAware ADS-B
10:41PM 40.7848 -74.1611 274° West 272 313 5,200 3,429 Climbing FlightAware ADS-B
10:41PM 40.7847 -74.1675 269° West 273 314 5,400 3,333 Climbing FlightAware ADS-B
10:42PM 40.7841 -74.1759 265° West 274 315 5,700 2,625 Climbing FlightAware ADS-B
10:42PM 40.7824 -74.1939 263° West 277 319 6,100 1,846 Climbing FlightAware ADS-B
10:42PM 40.7806 -74.2205 265° West 287 330 6,500 2,250 Climbing FlightAware ADS-B
10:42PM 40.7789 -74.2492 266° West 287 330 7,300 2,813 Climbing FlightAware ADS-B
10:43PM 40.7773 -74.2753 265° West 287 330 8,000 2,727 Climbing FlightAware ADS-B
10:43PM 40.7764 -74.2875 264° West 287 330 8,300 2,727 Climbing FlightAware ADS-B
10:43PM 40.7716 -74.3345 262° West 293 337 9,500 2,066 Climbing FlightAware ADS-B
10:44PM 40.7646 -74.3985 262° West 324 373 10,400 1,280 Climbing FlightAware ADS-B
10:44PM 40.7550 -74.4780 261° West 366 421 11,100 1,729 Climbing FlightAware
10:45PM 40.7496 -74.5240 261° West 373 429 12,100 3,120 Climbing FlightAware ADS-B
10:45PM 40.7411 -74.5947 261° West 384 442 13,700 3,034 Climbing FlightAware ADS-B
10:46PM 40.7260 -74.7230 261° West 397 457 16,500 2,968 Climbing FlightAware
10:47PM 40.7140 -74.8190 261° West 409 471 18,400 2,757 Climbing FlightAware
10:47PM 40.6940 -74.9010 252° West 418 481 19,900 2,229 Climbing FlightAware
10:48PM 40.6690 -74.9840 248° West 436 502 21,000 2,113 Climbing FlightAware
10:48PM 40.6410 -75.0790 249° West 447 514 22,400 2,348 Climbing FlightAware
10:49PM 40.6160 -75.1610 248° West 452 520 23,700 2,229 Climbing FlightAware
10:50PM 40.5870 -75.2560 248° West 460 529 25,000 2,000 Climbing FlightAware
10:50PM 40.5590 -75.3470 248° West 469 540 26,100 1,944 Climbing FlightAware
10:51PM 40.5300 -75.4420 248° West 476 548 27,300 2,000 Climbing FlightAware
10:51PM 40.5020 -75.5330 248° West 481 554 28,400 2,000 Climbing FlightAware
10:52PM 40.4710 -75.6330 248° West 482 555 29,600 2,000 Climbing FlightAware
10:53PM 40.4420 -75.7280 248° West 480 552 30,800 1,944 Climbing FlightAware
10:53PM 40.4120 -75.8250 248° West 481 554 31,900 1,676 Climbing FlightAware
10:54PM 40.3850 -75.9120 248° West 484 557 32,700 1,391 Climbing FlightAware
10:54PM 40.3540 -76.0090 247° West 489 563 33,500 1,333 Climbing FlightAware
10:55PM 40.3230 -76.1070 247° West 491 565 34,300 1,059 Climbing FlightAware
10:55PM 40.2960 -76.1950 248° West 499 574 34,700 1,147 Climbing FlightAware
10:56PM 40.2630 -76.2980 247° West 495 570 35,600 1,182 Climbing FlightAware
10:57PM 40.2370 -76.3801 247° West 496 571 36,000 364 Climbing FlightAware ADS-B
10:57PM 40.2081 -76.4706 247° West 496 571 36,000  Level FlightAware ADS-B
10:58PM 40.1754 -76.5729 247° West 495 570 36,000  Level FlightAware ADS-B
10:58PM 40.1413 -76.6789 247° West 494 568 36,000  Level FlightAware ADS-B
10:59PM 40.1140 -76.7650 247° West 493 567 36,000  Level FlightAware
11:00PM 40.0790 -76.8730 247° West 492 566 36,000  Level FlightAware
11:00PM 40.0450 -76.9760 247° West 491 565 36,000  Level FlightAware
11:00PM 40.0403 -76.9917 249° West 492 566 36,000  Level FlightAware ADS-B
11:01PM 40.0090 -77.0870 247° West 490 564 36,000  Level FlightAware
11:01PM 39.9780 -77.1840 247° West 490 564 36,000  Level FlightAware
11:02PM 39.9470 -77.2760 246° West 491 565 36,000  Level FlightAware
11:03PM 39.9160 -77.3730 247° West 491 565 36,000  Level FlightAware
11:03PM 39.8830 -77.4720 247° West 492 566 36,000  Level FlightAware
11:04PM 39.8540 -77.5590 247° West 494 568 36,000  Level FlightAware
11:04PM 39.8220 -77.6550 247° West 495 570 36,000  Level FlightAware
11:05PM 39.7880 -77.7560 246° West 496 571 36,000  Level FlightAware
11:06PM 39.7580 -77.8540 248° West 492 566 36,000  Level FlightAware
11:06PM 39.7260 -77.9660 250° West 494 568 36,000  Level FlightAware
11:07PM 39.6990 -78.0610 250° West 494 568 36,000  Level FlightAware
11:07PM 39.6720 -78.1510 249° West 496 571 36,000  Level FlightAware
11:08PM 39.6450 -78.2440 249° West 496 571 36,000  Level FlightAware
11:09PM 39.6110 -78.3530 248° West 502 578 36,000  Level FlightAware
11:09PM 39.5750 -78.4460 243° Southwest 503 579 36,000  Level FlightAware
11:10PM 39.5390 -78.5380 243° Southwest 501 577 36,000  Level FlightAware
11:10PM 39.5010 -78.6360 243° Southwest 502 578 36,000  Level FlightAware
11:11PM 39.4640 -78.7340 244° Southwest 500 575 36,000  Level FlightAware
11:11PM 39.4320 -78.8190 244° Southwest 500 575 36,000  Level FlightAware
11:12PM 39.3960 -78.9140 244° Southwest 499 574 36,000  Level FlightAware
11:13PM 39.3630 -79.0020 244° Southwest 499 574 36,000  Level FlightAware
11:13PM 39.3220 -79.1070 243° Southwest 498 573 36,000  Level FlightAware
11:14PM 39.2850 -79.2030 244° Southwest 497 572 36,000  Level FlightAware
11:14PM 39.2490 -79.2980 244° Southwest 498 573 36,000  Level FlightAware
11:15PM 39.2160 -79.3830 243° Southwest 498 573 36,000  Level FlightAware
11:16PM 39.1790 -79.4790 244° Southwest 497 572 36,000  Level FlightAware
11:16PM 39.1400 -79.5780 243° Southwest 498 573 36,000  Level FlightAware
11:17PM 39.1070 -79.6630 243° Southwest 498 573 36,000  Level FlightAware
11:17PM 39.0680 -79.7610 243° Southwest 498 573 36,000  Level FlightAware
11:18PM 39.0350 -79.8470 244° Southwest 497 572 36,000  Level FlightAware
11:19PM 38.9970 -79.9420 243° Southwest 498 573 36,000  Level FlightAware
11:19PM 38.9530 -80.0540 243° Southwest 498 573 36,000  Level FlightAware
11:20PM 38.9170 -80.1450 243° Southwest 499 574 36,000  Level FlightAware
11:20PM 38.8780 -80.2420 243° Southwest 499 574 36,000  Level FlightAware
11:21PM 38.8440 -80.3280 243° Southwest 498 573 36,000  Level FlightAware
11:22PM 38.8090 -80.4240 245° Southwest 491 565 36,000  Level FlightAware
11:22PM 38.7800 -80.5230 249° West 489 563 36,000  Level FlightAware
11:23PM 38.7560 -80.6050 249° West 491 565 36,000  Level FlightAware
11:23PM 38.7280 -80.7040 250° West 492 566 36,000  Level FlightAware
11:24PM 38.6990 -80.8060 250° West 492 566 36,000  Level FlightAware
11:24PM 38.6710 -80.9010 249° West 493 567 36,000  Level FlightAware
11:25PM 38.6430 -80.9980 250° West 494 568 36,000  Level FlightAware
11:26PM 38.6150 -81.0950 250° West 495 570 36,000  Level FlightAware
11:26PM 38.5900 -81.1780 249° West 495 570 36,000  Level FlightAware
11:27PM 38.5600 -81.2810 250° West 494 568 36,000  Level FlightAware
11:27PM 38.5310 -81.3800 249° West 494 568 36,000  Level FlightAware
11:28PM 38.5060 -81.4640 249° West 495 570 36,000  Level FlightAware
11:29PM 38.4760 -81.5650 249° West 494 568 36,000  Level FlightAware
11:29PM 38.4460 -81.6650 249° West 494 568 36,000  Level FlightAware
11:30PM 38.4180 -81.7590 249° West 494 568 36,000  Level FlightAware
11:30PM 38.3880 -81.8560 248° West 493 567 36,000  Level FlightAware
11:31PM 38.3620 -81.9430 249° West 492 566 36,000  Level FlightAware
11:31PM 38.3310 -82.0450 249° West 490 564 36,000  Level FlightAware
11:32PM 38.3134 -82.1038 249° West 490 564 36,000  Level FlightAware ADS-B
11:33PM 38.2730 -82.2370 249° West 488 562 36,000  Level FlightAware
11:33PM 38.2678 -82.2534 248° West 489 563 36,000  Level FlightAware ADS-B
11:33PM 38.2378 -82.3515 249° West 489 563 36,000  Level FlightAware ADS-B
11:34PM 38.2094 -82.4442 249° West 488 562 36,000  Level FlightAware ADS-B
11:34PM 38.1843 -82.5258 249° West 485 558 36,000 -590 Level FlightAware ADS-B
11:35PM 38.1598 -82.6052 249° West 486 559 35,400 -1,452 Descending FlightAware ADS-B
11:35PM 38.1324 -82.6933 248° West 493 567 34,500 -1,371 Descending FlightAware ADS-B
11:36PM 38.1010 -82.7960 249° West 498 573 33,800 -1,114 Descending FlightAware
11:37PM 38.0740 -82.8820 248° West 498 573 33,200 -1,116 Descending FlightAware
11:37PM 38.0646 -82.9114 248° West 498 573 33,000 -818 Descending FlightAware ADS-B
11:37PM 38.0380 -82.9960 248° West 495 570 32,600 -828 Descending FlightAware
11:38PM 38.0152 -83.0679 248° West 494 568 32,200 -643 Descending FlightAware ADS-B
11:38PM 37.9892 -83.1500 248° West 491 565 32,000 -146 Descending FlightAware ADS-B
11:39PM 37.9460 -83.2860 248° West 491 565 32,000  Level FlightAware
11:40PM 37.9110 -83.3979 248° West 494 568 32,000  Level FlightAware ADS-B
11:41PM 37.8580 -83.5640 248° West 495 570 32,000 -61 Level FlightAware
11:42PM 37.8260 -83.6620 248° West 493 567 31,900 -529 Descending FlightAware
11:42PM 37.8000 -83.7450 248° West 493 567 31,400 -1,412 Descending FlightAware
11:43PM 37.7720 -83.8440 250° West 487 560 30,300 -2,583 Descending FlightAware
11:43PM 37.7550 -83.9430 258° West 487 560 28,300 -2,906 Descending FlightAware
11:44PM 37.7480 -84.0230 264° West 479 551 27,200 -2,830 Descending FlightAware
11:44PM 37.7407 -84.0916 262° West 481 554 25,800 -2,632 Descending FlightAware ADS-B
11:45PM 37.7316 -84.1794 263° West 471 542 24,700 -1,645 Descending FlightAware ADS-B
11:45PM 37.7235 -84.2612 263° West 455 524 24,100 -1,373 Descending FlightAware ADS-B
11:46PM 37.7100 -84.3940 263° West 420 483 22,800 -1,912 Descending FlightAware
11:47PM 37.7020 -84.4840 264° West 396 456 21,200 -2,743 Descending FlightAware
11:47PM 37.6950 -84.5560 263° West 386 444 19,600 -3,088 Descending FlightAware
11:48PM 37.6870 -84.6340 263° West 376 433 17,700 -3,167 Descending FlightAware
11:48PM 37.6790 -84.7130 263° West 370 426 15,800 -3,000 Descending FlightAware
11:49PM 37.6720 -84.7810 263° West 358 412 14,300 -2,829 Descending FlightAware
11:50PM 37.6640 -84.8600 263° West 363 418 12,500 -2,234 Descending FlightAware
11:51PM 37.6720 -84.9720 275° West 344 396 10,800 -1,853 Descending FlightAware
11:51PM 37.6830 -84.9920 305° West 333 383 10,400 -1,333 Descending FlightAware
11:51PM 37.7060 -85.0250 311° West 310 357 10,000 -947 Descending FlightAware
11:51PM 37.7200 -85.0450 312° West 293 337 9,800 -1,571 Descending FlightAware
11:52PM 37.7440 -85.0780 313° West 285 328 8,900 -2,000 Descending FlightAware
11:52PM 37.7620 -85.1030 312° West 290 334 8,200 -1,737 Descending FlightAware
11:52PM 37.7790 -85.1250 314° West 290 334 7,800 -1,167 Descending FlightAware
11:53PM 37.7930 -85.1500 305° West 288 331 7,500 -1,105 Descending FlightAware
11:53PM 37.8040 -85.1800 295° West 287 330 7,100 -1,263 Descending FlightAware
11:53PM 37.8130 -85.2080 292° West 285 328 6,700 -667 Descending FlightAware
11:54PM 37.8280 -85.2560 292° West 285 328 6,500 -1,138 Descending FlightAware
11:54PM 37.8420 -85.2960 294° West 281 323 5,600 -2,000 Descending FlightAware
11:55PM 37.8570 -85.3260 302° West 280 322 5,100 -1,313 Descending FlightAware
11:55PM 37.8650 -85.3410 304° West 279 321 4,900 -316 Descending FlightAware
11:55PM 37.8810 -85.3710 304° West 279 321 4,900 -1,154 Level FlightAware
11:56PM 37.9030 -85.4110 305° West 275 316 3,900 -1,636 Descending FlightAware
11:56PM 37.9150 -85.4330 305° West 275 316 3,700 -900 Descending FlightAware
11:56PM 37.9320 -85.4640 305° West 275 316 3,300 -1,043 Descending FlightAware
11:57PM 37.9490 -85.4960 304° West 274 315 2,900 -682 Descending FlightAware
11:57PM 37.9630 -85.5220 304° West 261 300 2,800 -188 Descending FlightAware
11:57PM 37.9710 -85.5370 304° West 250 288 2,800  Level FlightAware
11:58PM 37.9860 -85.5650 304° West 248 285 2,800  Level FlightAware
11:58PM 37.9940 -85.5790 306° West 240 276 2,800  Level FlightAware
11:58PM 38.0070 -85.6040 303° West 225 259 2,800 -143 Level FlightAware
11:59PM 38.0190 -85.6250 306° West 209 241 2,700 -375 Descending FlightAware
11:59PM 38.0250 -85.6360 305° West 206 237 2,600 -500 Descending FlightAware
11:59PM 38.0380 -85.6610 303° West 206 237 2,400 -409 Descending FlightAware
12:00AM 38.0480 -85.6810 302° West 198 228 2,300 -300 Descending FlightAware
12:00AM 38.0590 -85.6990 308° West 184 212 2,200 -214 Descending FlightAware
12:00AM 38.0630 -85.7050 310° West 184 212 2,200 -375 Level FlightAware
12:00AM 38.0690 -85.7090 332° Northwest 183 211 2,100 -1,000 Descending FlightAware
12:01AM 38.0870 -85.7150 345° North 173 199 1,700 -1,059 Descending FlightAware
12:01AM 38.0960 -85.7190 341° North 166 191 1,500 -750 Descending FlightAware
12:01AM 38.1110 -85.7240 345° North 165 190 1,300 -818 Descending FlightAware
12:01AM 38.1280 -85.7300 344° North 166 191 900 -837 Descending FlightAware
12:02AM 38.1430 -85.7340 348° North 164 189 700 -750 Descending FlightAware
12:02AM 38.1570 -85.7390 344° North 154 177 400 -857 Descending FlightAware
12:03AM 38.1710 -85.7430 347° North 100 115 -1,043 Descending FlightAware